Time;durP1;ratioP1;P1;durP2;ratioP2;P2;SDS_P1;SDS_P2;PMS_P1;PMS_P2;Temp;Humidity;BMP_temperature;BMP_pressure;BME280_temperature;BME280_humidity;BME280_pressure;Samples;Min_cycle;Max_cycle;Signal;HPM_P1;HPM_P2
2022/10/15 00:01:10;;;;;;;36.55;29.52;;;13.20;81.60;;;;;;5114560;28;20470;-73
2022/10/15 00:03:39;;;;;;;36.22;28.98;;;13.20;81.70;;;;;;5131673;28;20116;-73
2022/10/15 00:06:07;;;;;;;33.72;26.42;;;13.20;82.10;;;;;;5132111;28;20483;-73
2022/10/15 00:08:33;;;;;;;34.47;27.73;;;13.20;81.80;;;;;;5114849;28;20066;-72
2022/10/15 00:11:05;;;;;;;36.55;28.15;;;13.20;81.80;;;;;;5131945;27;20066;-73
2022/10/15 00:13:32;;;;;;;36.45;28.52;;;13.20;81.90;;;;;;5144123;27;20524;-73
2022/10/15 00:15:58;;;;;;;35.42;27.92;;;13.20;81.90;;;;;;5131455;27;20112;-73
2022/10/15 00:18:23;;;;;;;39.15;29.98;;;13.20;81.90;;;;;;5114499;28;20069;-73
2022/10/15 00:20:49;;;;;;;38.58;29.73;;;13.20;82.00;;;;;;5138318;27;20089;-73
2022/10/15 00:23:14;;;;;;;38.75;28.83;;;13.20;82.00;;;;;;5138982;27;20035;-73
2022/10/15 00:25:41;;;;;;;36.05;30.15;;;13.20;82.00;;;;;;5114370;28;20100;-73
2022/10/15 00:28:07;;;;;;;39.70;29.20;;;13.20;82.00;;;;;;5131773;27;20054;-73
2022/10/15 00:30:32;;;;;;;32.67;28.77;;;13.20;82.00;;;;;;5131476;27;20032;-73
2022/10/15 00:32:58;;;;;;;38.72;30.83;;;13.20;82.00;;;;;;5114373;28;20114;-72
2022/10/15 00:35:24;;;;;;;38.90;29.27;;;13.20;82.00;;;;;;5114353;27;20130;-72
2022/10/15 00:37:49;;;;;;;34.22;28.77;;;13.20;82.00;;;;;;5096432;28;20038;-72
2022/10/15 00:40:15;;;;;;;36.08;27.02;;;13.10;81.90;;;;;;5114722;28;20031;-72
2022/10/15 00:42:41;;;;;;;32.28;27.05;;;13.10;82.00;;;;;;5138863;27;20521;-72
2022/10/15 00:45:11;;;;;;;35.35;28.35;;;13.10;82.00;;;;;;5134602;27;20402;-72
2022/10/15 00:47:47;;;;;;;34.30;28.48;;;13.10;82.00;;;;;;5135305;27;20083;-72
2022/10/15 00:50:19;;;;;;;40.45;30.40;;;13.10;82.00;;;;;;5135376;27;20486;-73
2022/10/15 00:53:02;;;;;;;39.60;30.45;;;13.10;82.00;;;;;;5117712;27;20063;-73
2022/10/15 00:55:30;;;;;;;35.15;27.98;;;13.10;82.00;;;;;;5137247;27;20392;-73
2022/10/15 00:58:00;;;;;;;39.67;30.30;;;13.10;82.00;;;;;;5148628;27;20040;-73
2022/10/15 01:00:27;;;;;;;39.38;31.08;;;13.10;82.00;;;;;;5131346;27;20064;-73
2022/10/15 01:02:52;;;;;;;34.88;28.27;;;13.10;82.00;;;;;;5134282;27;20043;-73
2022/10/15 01:05:18;;;;;;;36.78;29.35;;;13.10;82.00;;;;;;5117055;27;20043;-73
2022/10/15 01:07:44;;;;;;;31.95;26.73;;;13.10;82.00;;;;;;5152212;27;20390;-73
2022/10/15 01:10:10;;;;;;;36.92;29.42;;;13.10;82.00;;;;;;5134864;27;20491;-73
2022/10/15 01:12:50;;;;;;;33.42;27.63;;;13.10;82.10;;;;;;5135296;27;20031;-73
2022/10/15 01:15:27;;;;;;;37.40;29.50;;;13.10;82.10;;;;;;5133663;27;20063;-72
2022/10/15 01:17:58;;;;;;;35.55;28.25;;;13.10;82.10;;;;;;5134760;27;20042;-73
2022/10/15 01:20:54;;;;;;;36.00;28.38;;;13.10;82.20;;;;;;5134437;27;20031;-72
2022/10/15 01:23:44;;;;;;;41.47;30.35;;;13.10;82.10;;;;;;5134552;27;20042;-72
2022/10/15 01:26:25;;;;;;;31.05;25.65;;;13.10;82.20;;;;;;5130105;27;20046;-73
2022/10/15 01:29:20;;;;;;;35.38;27.60;;;13.10;82.10;;;;;;5133739;27;20490;-73
2022/10/15 01:32:00;;;;;;;36.55;28.52;;;13.10;82.00;;;;;;5099689;27;20409;-73
2022/10/15 01:34:37;;;;;;;37.35;29.20;;;13.10;82.20;;;;;;5133092;27;20047;-73
2022/10/15 01:37:22;;;;;;;35.70;28.33;;;13.10;82.20;;;;;;5134125;27;20043;-72
2022/10/15 01:39:58;;;;;;;31.08;26.33;;;13.10;82.00;;;;;;5134204;27;20432;-73
2022/10/15 01:42:40;;;;;;;38.35;27.48;;;13.10;82.20;;;;;;5134213;27;20096;-73
2022/10/15 01:45:09;;;;;;;27.67;22.60;;;13.10;82.10;;;;;;5133377;27;20482;-73
2022/10/15 01:47:47;;;;;;;34.17;26.42;;;13.10;82.10;;;;;;5134191;27;20043;-72
2022/10/15 01:50:15;;;;;;;34.65;26.35;;;13.10;82.10;;;;;;5116876;27;20043;-72
2022/10/15 01:52:43;;;;;;;37.35;28.05;;;13.10;82.00;;;;;;5133551;27;20043;-73
2022/10/15 01:55:13;;;;;;;35.78;26.05;;;13.10;82.00;;;;;;5115780;27;20043;-73
2022/10/15 01:57:42;;;;;;;33.83;27.05;;;13.10;82.00;;;;;;5133953;27;20156;-72
2022/10/15 02:00:08;;;;;;;31.55;26.52;;;13.10;82.00;;;;;;5133404;27;20543;-72
2022/10/15 02:02:34;;;;;;;31.55;25.95;;;13.10;82.00;;;;;;5134175;27;20401;-72
2022/10/15 02:04:59;;;;;;;34.88;27.55;;;13.10;81.90;;;;;;5096972;27;20039;-72
2022/10/15 02:07:25;;;;;;;33.13;26.65;;;13.10;81.90;;;;;;5151158;27;20043;-72
2022/10/15 02:09:59;;;;;;;32.78;25.77;;;13.10;81.80;;;;;;5141088;27;20040;-72
2022/10/15 02:12:51;;;;;;;34.05;24.67;;;13.10;81.80;;;;;;5127205;27;20085;-72
2022/10/15 02:15:29;;;;;;;28.48;22.75;;;13.10;81.70;;;;;;5126086;27;20039;-72
2022/10/15 02:18:22;;;;;;;32.63;23.85;;;13.10;81.70;;;;;;5150419;27;20039;-73
2022/10/15 02:20:57;;;;;;;29.25;24.45;;;13.10;81.60;;;;;;5134400;27;20043;-72
2022/10/15 02:23:55;;;;;;;28.92;23.48;;;13.10;81.60;;;;;;5134073;27;20480;-72
2022/10/15 02:26:24;;;;;;;29.55;22.17;;;13.10;81.40;;;;;;5112332;27;20062;-72
2022/10/15 02:28:53;;;;;;;28.88;22.05;;;13.10;81.50;;;;;;5133844;27;20538;-72
2022/10/15 02:31:20;;;;;;;24.35;20.95;;;13.10;81.50;;;;;;5132346;27;20546;-72
2022/10/15 02:33:49;;;;;;;25.85;21.08;;;13.10;81.40;;;;;;5132841;27;20043;-72
2022/10/15 02:36:17;;;;;;;28.25;22.23;;;13.10;81.40;;;;;;5132497;27;20035;-72
2022/10/15 02:38:44;;;;;;;27.23;22.27;;;13.10;81.40;;;;;;5133303;27;20121;-72
2022/10/15 02:41:11;;;;;;;29.13;22.42;;;13.10;81.40;;;;;;5132681;27;20153;-72
2022/10/15 02:43:37;;;;;;;29.83;22.17;;;13.10;81.30;;;;;;5133225;27;21770;-73
2022/10/15 02:46:04;;;;;;;27.20;22.45;;;13.10;81.30;;;;;;5133049;27;20042;-73
2022/10/15 02:48:30;;;;;;;25.77;20.63;;;13.10;81.30;;;;;;5132853;27;20043;-73
2022/10/15 02:50:55;;;;;;;27.67;22.40;;;13.00;81.20;;;;;;5136792;27;20074;-73
2022/10/15 02:53:21;;;;;;;29.33;22.95;;;13.10;81.30;;;;;;5114002;27;20073;-73
2022/10/15 02:55:47;;;;;;;28.08;23.23;;;13.10;81.20;;;;;;5128451;27;20086;-73
2022/10/15 02:58:13;;;;;;;26.60;21.23;;;13.10;81.30;;;;;;5133092;27;20058;-73
2022/10/15 03:00:38;;;;;;;36.17;25.00;;;13.00;81.20;;;;;;5143201;27;20039;-72
2022/10/15 03:03:04;;;;;;;29.80;23.67;;;13.10;81.20;;;;;;5115396;27;20045;-73
2022/10/15 03:05:30;;;;;;;32.28;24.13;;;13.10;81.20;;;;;;5115505;27;20046;-72
2022/10/15 03:07:57;;;;;;;28.48;23.45;;;13.10;81.20;;;;;;5125180;27;20083;-72
2022/10/15 03:10:23;;;;;;;29.52;22.77;;;13.10;81.20;;;;;;5129194;27;20106;-72
2022/10/15 03:12:49;;;;;;;32.53;23.83;;;13.10;81.20;;;;;;5132338;27;20459;-72
2022/10/15 03:15:14;;;;;;;36.50;26.58;;;13.10;81.20;;;;;;5097310;28;20127;-72
2022/10/15 03:17:40;;;;;;;34.65;26.13;;;13.10;81.20;;;;;;5132450;27;20072;-72
2022/10/15 03:20:06;;;;;;;37.88;28.67;;;13.10;81.20;;;;;;5132182;27;20039;-73
2022/10/15 03:22:31;;;;;;;28.10;22.55;;;13.10;81.10;;;;;;5132599;27;20039;-73
2022/10/15 03:24:57;;;;;;;34.65;26.85;;;13.00;81.00;;;;;;5129778;27;20050;-72
2022/10/15 03:27:23;;;;;;;33.83;24.92;;;13.00;81.00;;;;;;5132415;27;20074;-72
2022/10/15 03:29:49;;;;;;;35.83;27.88;;;13.10;81.10;;;;;;5131152;27;20035;-72
2022/10/15 03:32:15;;;;;;;39.78;29.75;;;13.00;81.00;;;;;;5132462;27;20034;-73
2022/10/15 03:34:41;;;;;;;37.08;29.42;;;13.00;81.00;;;;;;5131664;27;20039;-72
2022/10/15 03:37:07;;;;;;;36.08;28.27;;;13.00;81.00;;;;;;5132520;28;20041;-73
2022/10/15 03:39:32;;;;;;;41.28;30.80;;;13.00;81.00;;;;;;5132009;28;20126;-73
2022/10/15 03:41:58;;;;;;;35.20;27.50;;;13.00;81.00;;;;;;5114501;28;20050;-72
2022/10/15 03:44:24;;;;;;;37.03;29.50;;;13.00;81.10;;;;;;5126648;27;20081;-72
2022/10/15 03:46:50;;;;;;;39.63;29.92;;;13.00;81.10;;;;;;5132108;27;20049;-72
2022/10/15 03:49:16;;;;;;;43.92;31.75;;;13.00;81.10;;;;;;5132430;28;20436;-73
2022/10/15 03:51:42;;;;;;;38.58;28.85;;;13.00;81.10;;;;;;5131609;28;20047;-73
2022/10/15 03:54:07;;;;;;;42.33;31.85;;;13.00;81.10;;;;;;5133424;27;20056;-73
2022/10/15 03:56:33;;;;;;;48.40;34.72;;;13.00;81.10;;;;;;5114278;28;20126;-73
2022/10/15 03:58:59;;;;;;;40.55;30.48;;;13.00;81.10;;;;;;5146898;27;20062;-73
2022/10/15 04:01:24;;;;;;;46.35;34.15;;;13.00;81.10;;;;;;5134879;27;20055;-73
2022/10/15 04:03:53;;;;;;;41.80;31.98;;;12.90;81.00;;;;;;5139550;27;20418;-73
2022/10/15 04:06:19;;;;;;;44.78;33.97;;;13.00;81.10;;;;;;5130668;27;20111;-73
2022/10/15 04:08:45;;;;;;;50.25;36.75;;;13.00;81.00;;;;;;5114912;28;20095;-73
2022/10/15 04:11:11;;;;;;;49.28;36.00;;;13.00;80.90;;;;;;5132003;28;20121;-73
2022/10/15 04:13:36;;;;;;;55.45;39.70;;;12.90;80.90;;;;;;5114872;28;20046;-73
2022/10/15 04:16:05;;;;;;;48.70;36.65;;;12.90;80.90;;;;;;5132034;27;20394;-73
2022/10/15 04:18:32;;;;;;;52.13;38.72;;;12.90;80.90;;;;;;5135921;27;20682;-73
2022/10/15 04:20:58;;;;;;;52.83;38.67;;;12.90;80.90;;;;;;5118301;27;20141;-73
2022/10/15 04:23:24;;;;;;;47.15;35.63;;;12.90;80.80;;;;;;5118904;27;20089;-73
2022/10/15 04:25:49;;;;;;;45.83;33.88;;;12.80;80.70;;;;;;5097845;28;20040;-73
2022/10/15 04:28:15;;;;;;;48.50;35.83;;;12.80;80.70;;;;;;5098279;28;20092;-73
2022/10/15 04:30:41;;;;;;;48.60;35.63;;;12.80;80.80;;;;;;5138260;27;20038;-73
2022/10/15 04:33:07;;;;;;;56.97;38.25;;;12.80;80.90;;;;;;5152656;27;20126;-73
2022/10/15 04:35:33;;;;;;;55.33;39.10;;;12.80;81.00;;;;;;5117582;27;20035;-73
2022/10/15 04:38:00;;;;;;;44.42;33.25;;;12.80;81.00;;;;;;5135870;27;20075;-73
2022/10/15 04:40:26;;;;;;;61.05;39.80;;;12.70;81.00;;;;;;5117899;27;20112;-73
2022/10/15 04:42:51;;;;;;;58.85;39.17;;;12.80;81.10;;;;;;5117900;27;20031;-73
2022/10/15 04:45:17;;;;;;;55.28;38.50;;;12.70;81.20;;;;;;5137605;27;20523;-73
2022/10/15 04:47:43;;;;;;;62.15;40.13;;;12.70;81.20;;;;;;5135011;27;20402;-73
2022/10/15 04:50:09;;;;;;;58.90;40.53;;;12.70;81.30;;;;;;5134789;27;20035;-72
2022/10/15 04:52:35;;;;;;;57.33;42.28;;;12.80;81.40;;;;;;5135135;27;20051;-73
2022/10/15 04:55:03;;;;;;;64.15;41.08;;;12.70;81.40;;;;;;5117769;27;20101;-73
2022/10/15 04:57:29;;;;;;;60.75;41.17;;;12.70;81.50;;;;;;5086577;28;20035;-72
2022/10/15 04:59:55;;;;;;;59.90;40.10;;;12.70;81.60;;;;;;5118873;27;20035;-72
2022/10/15 05:02:20;;;;;;;56.03;37.80;;;12.70;81.70;;;;;;5117536;27;20031;-73
2022/10/15 05:04:46;;;;;;;57.97;38.42;;;12.70;81.80;;;;;;5139375;27;20039;-72
2022/10/15 05:07:12;;;;;;;60.40;41.40;;;12.70;81.90;;;;;;5140676;27;20380;-72
2022/10/15 05:09:37;;;;;;;55.65;38.95;;;12.70;82.00;;;;;;5126644;27;20482;-73
2022/10/15 05:12:03;;;;;;;61.22;41.10;;;12.70;82.00;;;;;;5125025;27;20066;-73
2022/10/15 05:14:29;;;;;;;60.95;40.67;;;12.70;82.10;;;;;;5128933;27;20407;-73
2022/10/15 05:16:54;;;;;;;52.53;36.40;;;12.70;82.10;;;;;;5134518;27;20038;-73
2022/10/15 05:19:20;;;;;;;54.50;38.45;;;12.70;82.10;;;;;;5139521;27;20470;-74
2022/10/15 05:21:46;;;;;;;54.35;37.28;;;12.70;82.20;;;;;;5133387;27;20034;-74
2022/10/15 05:24:11;;;;;;;64.50;41.78;;;12.70;82.20;;;;;;5152156;27;20039;-73
2022/10/15 05:26:37;;;;;;;63.75;41.47;;;12.80;82.30;;;;;;5121978;27;20050;-74
2022/10/15 05:29:03;;;;;;;61.85;42.10;;;12.80;82.30;;;;;;5135602;27;20047;-73
2022/10/15 05:31:30;;;;;;;56.28;41.50;;;12.80;82.30;;;;;;5127711;27;20050;-73
2022/10/15 05:33:56;;;;;;;63.00;42.05;;;12.80;82.30;;;;;;5134541;27;20058;-74
2022/10/15 05:36:23;;;;;;;67.78;43.85;;;12.80;82.30;;;;;;5116651;27;20083;-72
2022/10/15 05:38:54;;;;;;;56.22;38.10;;;12.80;82.30;;;;;;5134361;27;20042;-72
2022/10/15 05:41:21;;;;;;;63.22;41.00;;;12.80;82.30;;;;;;5133792;27;20035;-72
2022/10/15 05:43:51;;;;;;;59.13;40.30;;;12.80;82.30;;;;;;5134263;27;20065;-72
2022/10/15 05:46:18;;;;;;;56.83;39.55;;;12.80;82.40;;;;;;5127553;27;20478;-72
2022/10/15 05:48:51;;;;;;;57.33;40.08;;;12.80;82.40;;;;;;5133911;27;20046;-72
2022/10/15 05:51:17;;;;;;;57.47;38.38;;;12.80;82.50;;;;;;5098902;27;20055;-73
2022/10/15 05:53:45;;;;;;;59.83;41.70;;;12.80;82.50;;;;;;5131912;27;20491;-73
2022/10/15 05:56:11;;;;;;;65.20;43.95;;;12.80;82.50;;;;;;5139172;27;20027;-73
2022/10/15 05:58:37;;;;;;;60.22;39.83;;;12.90;82.60;;;;;;5133924;27;20027;-73
2022/10/15 06:01:05;;;;;;;64.53;43.05;;;12.90;82.60;;;;;;5116581;27;20398;-73
2022/10/15 06:03:31;;;;;;;60.45;42.08;;;12.90;82.60;;;;;;5116818;27;20035;-73
2022/10/15 06:05:57;;;;;;;64.22;42.92;;;12.90;82.60;;;;;;5116207;27;20039;-74
2022/10/15 06:08:23;;;;;;;63.90;41.60;;;12.90;82.70;;;;;;5138810;27;20437;-74
2022/10/15 06:10:48;;;;;;;57.67;38.72;;;12.90;82.70;;;;;;5126069;27;20463;-74
2022/10/15 06:13:15;;;;;;;63.38;41.95;;;12.90;82.70;;;;;;5125262;27;20047;-74
2022/10/15 06:15:42;;;;;;;59.88;38.42;;;12.90;82.80;;;;;;5116272;27;20118;-74
2022/10/15 06:18:10;;;;;;;62.38;40.35;;;12.90;83.20;;;;;;5133407;27;20091;-74
2022/10/15 06:20:36;;;;;;;65.25;42.95;;;12.90;82.80;;;;;;5133395;27;20403;-73
2022/10/15 06:23:04;;;;;;;55.83;40.05;;;12.90;82.80;;;;;;5132528;27;20035;-73
2022/10/15 06:25:30;;;;;;;60.70;40.45;;;12.90;82.90;;;;;;5133213;27;20031;-73
2022/10/15 06:28:01;;;;;;;59.78;40.25;;;12.90;82.80;;;;;;5132844;27;20050;-74
2022/10/15 06:30:26;;;;;;;58.80;39.85;;;13.00;83.40;;;;;;5132514;27;20031;-74
2022/10/15 06:32:52;;;;;;;62.58;41.58;;;13.00;82.90;;;;;;5139318;27;20031;-74
2022/10/15 06:35:20;;;;;;;60.75;41.47;;;13.00;82.90;;;;;;5116235;27;20047;-74
2022/10/15 06:37:46;;;;;;;62.55;42.38;;;13.00;83.00;;;;;;5132010;27;20628;-74
2022/10/15 06:40:12;;;;;;;66.40;41.47;;;13.00;83.00;;;;;;5132825;27;20039;-74
2022/10/15 06:42:38;;;;;;;64.22;41.45;;;13.00;83.00;;;;;;5115496;27;20100;-74
2022/10/15 06:45:05;;;;;;;61.80;42.78;;;13.00;83.00;;;;;;5150206;27;20072;-74
2022/10/15 06:47:31;;;;;;;62.80;41.00;;;13.00;83.10;;;;;;5132899;27;20122;-74
2022/10/15 06:49:57;;;;;;;57.55;39.53;;;13.00;83.10;;;;;;5115528;27;20122;-73
2022/10/15 06:52:23;;;;;;;56.30;38.60;;;13.00;83.20;;;;;;5132908;27;20077;-73
2022/10/15 06:54:49;;;;;;;62.28;41.60;;;13.10;83.30;;;;;;5115540;27;20121;-73
2022/10/15 06:57:15;;;;;;;56.15;38.33;;;13.10;83.30;;;;;;5132280;27;20082;-73
2022/10/15 06:59:41;;;;;;;58.22;38.42;;;13.10;83.30;;;;;;5115039;27;20038;-74
2022/10/15 07:02:09;;;;;;;56.83;39.00;;;13.10;83.30;;;;;;5125192;27;20031;-74
2022/10/15 07:04:35;;;;;;;54.90;39.55;;;13.10;83.40;;;;;;5130160;27;20042;-73
2022/10/15 07:07:00;;;;;;;52.33;37.08;;;13.10;83.40;;;;;;5131555;27;20043;-73
2022/10/15 07:09:26;;;;;;;56.45;36.65;;;13.10;83.40;;;;;;5117783;27;20035;-74
2022/10/15 07:11:52;;;;;;;52.63;36.35;;;13.10;83.40;;;;;;5122691;27;20062;-75
2022/10/15 07:14:18;;;;;;;59.17;38.75;;;13.20;83.50;;;;;;5131251;27;20723;-74
2022/10/15 07:16:43;;;;;;;52.85;35.75;;;13.20;83.50;;;;;;5098373;27;20047;-74
2022/10/15 07:19:09;;;;;;;57.25;38.55;;;13.20;83.40;;;;;;5132475;27;20027;-74
2022/10/15 07:21:35;;;;;;;53.35;37.03;;;13.20;83.40;;;;;;5115262;27;20105;-74
2022/10/15 07:24:00;;;;;;;57.95;39.22;;;13.20;83.40;;;;;;5132314;27;20042;-74
2022/10/15 07:26:29;;;;;;;56.28;39.17;;;13.20;83.40;;;;;;5115276;27;20039;-74
2022/10/15 07:28:56;;;;;;;56.30;37.70;;;13.30;83.60;;;;;;5132443;27;20077;-74
2022/10/15 07:31:22;;;;;;;56.85;38.42;;;13.30;83.70;;;;;;5131960;27;20091;-74
2022/10/15 07:33:48;;;;;;;53.47;37.50;;;13.30;83.70;;;;;;5132150;27;20039;-74
2022/10/15 07:36:13;;;;;;;56.10;37.55;;;13.30;84.00;;;;;;5148299;27;20078;-74
2022/10/15 07:38:39;;;;;;;52.20;37.42;;;13.30;83.40;;;;;;5131878;28;20039;-74
2022/10/15 07:41:06;;;;;;;49.58;35.97;;;13.40;83.80;;;;;;5115018;28;20058;-74
2022/10/15 07:43:33;;;;;;;51.92;36.88;;;13.40;83.30;;;;;;5133109;27;20039;-74
2022/10/15 07:45:59;;;;;;;51.28;37.92;;;13.40;83.40;;;;;;5115054;28;20031;-74
2022/10/15 07:48:24;;;;;;;51.92;39.03;;;13.40;83.80;;;;;;5114413;28;20035;-74
2022/10/15 07:50:54;;;;;;;54.47;38.28;;;13.40;83.40;;;;;;5131746;27;20049;-74
2022/10/15 07:53:20;;;;;;;57.83;41.30;;;13.50;83.40;;;;;;5135903;27;20051;-74
2022/10/15 07:55:46;;;;;;;55.85;41.83;;;13.50;83.40;;;;;;5098601;28;20035;-74
2022/10/15 07:58:11;;;;;;;55.25;40.22;;;13.50;83.40;;;;;;5108220;27;20031;-75
2022/10/15 08:00:37;;;;;;;58.65;41.17;;;13.50;83.40;;;;;;5118910;27;20061;-74
2022/10/15 08:03:02;;;;;;;57.22;39.65;;;13.60;83.40;;;;;;5135827;27;20039;-74
2022/10/15 08:05:28;;;;;;;58.30;41.33;;;13.60;83.40;;;;;;5118992;27;20039;-74
2022/10/15 08:07:54;;;;;;;60.65;40.80;;;13.60;83.40;;;;;;5153496;27;20035;-74
2022/10/15 08:10:20;;;;;;;57.55;40.97;;;13.60;83.40;;;;;;5135548;27;20035;-75
2022/10/15 08:12:45;;;;;;;58.08;40.88;;;13.60;83.40;;;;;;5118430;27;20031;-74
2022/10/15 08:15:11;;;;;;;54.55;39.35;;;13.60;83.70;;;;;;5118585;27;20031;-74
2022/10/15 08:17:37;;;;;;;60.03;41.95;;;13.70;83.20;;;;;;5146062;27;20047;-74
2022/10/15 08:20:03;;;;;;;59.35;40.60;;;13.70;83.10;;;;;;5131242;27;20492;-74
2022/10/15 08:22:29;;;;;;;52.50;38.65;;;13.60;83.00;;;;;;5118881;27;20046;-74
2022/10/15 08:24:54;;;;;;;55.35;39.00;;;13.70;83.00;;;;;;5135496;27;20035;-74
2022/10/15 08:27:20;;;;;;;54.75;38.08;;;13.70;83.00;;;;;;5137125;27;20042;-74
2022/10/15 08:29:45;;;;;;;55.47;38.92;;;13.70;83.00;;;;;;5113500;27;20039;-74
2022/10/15 08:32:12;;;;;;;53.63;37.58;;;13.70;83.00;;;;;;5135727;27;20114;-74
2022/10/15 08:34:37;;;;;;;51.88;35.28;;;13.70;82.90;;;;;;5146971;27;20626;-75
2022/10/15 08:37:03;;;;;;;49.25;34.10;;;13.70;82.80;;;;;;5132313;27;20031;-74
2022/10/15 08:39:29;;;;;;;52.63;37.33;;;13.70;82.70;;;;;;5137403;27;20031;-74
2022/10/15 08:42:00;;;;;;;51.08;36.92;;;13.70;82.60;;;;;;5135543;27;20112;-74
2022/10/15 08:44:37;;;;;;;52.63;36.17;;;13.70;82.60;;;;;;5134226;27;20077;-73
2022/10/15 08:47:09;;;;;;;52.25;34.33;;;13.70;82.60;;;;;;5135264;27;20043;-73
2022/10/15 08:49:43;;;;;;;53.75;35.05;;;13.70;82.50;;;;;;5118000;27;20477;-73
2022/10/15 08:52:37;;;;;;;52.65;35.53;;;13.70;82.50;;;;;;5135161;27;20084;-73
2022/10/15 08:55:03;;;;;;;57.35;34.75;;;13.70;82.40;;;;;;5138024;27;20061;-73
2022/10/15 08:57:58;;;;;;;51.80;33.03;;;13.70;82.50;;;;;;5150261;27;20521;-73
2022/10/15 09:00:49;;;;;;;55.35;35.15;;;13.70;82.50;;;;;;5149194;27;20042;-74
2022/10/15 09:03:36;;;;;;;50.17;33.88;;;13.70;82.60;;;;;;5132101;27;20039;-74
2022/10/15 09:06:18;;;;;;;56.45;34.97;;;13.70;82.60;;;;;;5149294;27;20560;-73
2022/10/15 09:09:35;;;;;;;54.00;35.45;;;13.70;82.70;;;;;;5150307;27;20049;-73
2022/10/15 09:12:06;;;;;;;46.50;32.60;;;13.70;82.50;;;;;;5050839;28;20488;-73
2022/10/15 09:14:39;;;;;;;52.17;34.15;;;13.70;82.70;;;;;;5046253;28;20041;-73
2022/10/15 09:17:15;;;;;;;54.65;34.45;;;13.80;82.90;;;;;;5115590;27;20047;-73
2022/10/15 09:19:44;;;;;;;51.28;33.40;;;13.80;82.90;;;;;;5122666;28;20035;-73
2022/10/15 09:22:15;;;;;;;46.45;31.58;;;13.80;83.40;;;;;;5128106;28;20023;-73
2022/10/15 09:24:41;;;;;;;45.88;31.63;;;13.80;83.00;;;;;;5116428;27;20043;-73
2022/10/15 09:27:31;;;;;;;43.40;29.20;;;13.80;83.10;;;;;;5125333;28;20460;-73
2022/10/15 09:30:05;;;;;;;38.78;27.83;;;13.90;83.10;;;;;;5131449;28;20039;-73
2022/10/15 09:33:02;;;;;;;34.35;25.38;;;13.90;82.90;;;;;;5147823;27;20043;-73
2022/10/15 09:35:37;;;;;;;37.92;26.80;;;13.90;82.80;;;;;;5117477;28;20149;-73
2022/10/15 09:38:30;;;;;;;32.58;23.08;;;13.90;82.90;;;;;;5132577;27;20028;-73
2022/10/15 09:41:15;;;;;;;30.48;22.23;;;13.90;82.90;;;;;;5128674;28;20496;-73
2022/10/15 09:43:44;;;;;;;29.73;21.92;;;14.00;83.10;;;;;;5115799;28;20127;-72
2022/10/15 09:46:11;;;;;;;30.67;20.70;;;14.00;83.20;;;;;;5132877;28;20050;-77
2022/10/15 09:48:45;;;;;;;27.23;20.02;;;14.10;83.30;;;;;;5116977;28;20398;-76
2022/10/15 09:51:34;;;;;;;27.13;20.25;;;14.10;83.30;;;;;;5133583;28;20510;-76
2022/10/15 09:54:18;;;;;;;28.38;20.83;;;14.20;83.40;;;;;;5116004;27;172832;-77
2022/10/15 09:57:02;;;;;;;30.02;23.60;;;14.30;83.40;;;;;;5134387;27;20039;-76
2022/10/15 09:59:28;;;;;;;23.63;19.02;;;14.30;83.40;;;;;;5128435;27;20066;-77
2022/10/15 10:02:01;;;;;;;21.63;17.20;;;14.40;83.50;;;;;;5116916;27;20070;-77
2022/10/15 10:04:32;;;;;;;25.50;18.50;;;14.40;83.40;;;;;;5117080;27;20039;-77
2022/10/15 10:07:02;;;;;;;22.75;17.15;;;14.50;83.30;;;;;;5116760;27;20054;-76
2022/10/15 10:09:36;;;;;;;19.70;16.42;;;14.50;83.30;;;;;;5134129;27;20486;-77
2022/10/15 10:12:07;;;;;;;20.10;16.30;;;14.60;83.10;;;;;;5116813;27;20046;-76
2022/10/15 10:14:39;;;;;;;21.15;17.17;;;14.70;82.70;;;;;;5132888;27;20045;-76
2022/10/15 10:17:04;;;;;;;19.55;15.45;;;14.80;82.30;;;;;;5116923;27;20372;-76
2022/10/15 10:19:30;;;;;;;20.88;15.82;;;14.80;82.00;;;;;;5133921;27;20064;-76
2022/10/15 10:22:11;;;;;;;19.55;15.70;;;14.80;81.80;;;;;;5099779;27;20035;-76
2022/10/15 10:24:37;;;;;;;19.20;14.90;;;14.90;81.70;;;;;;5096538;28;20039;-76
2022/10/15 10:27:03;;;;;;;17.20;13.60;;;14.90;81.60;;;;;;5129628;27;20042;-76
2022/10/15 10:29:38;;;;;;;19.50;14.77;;;14.90;81.40;;;;;;5113366;28;20042;-76
2022/10/15 10:32:31;;;;;;;19.88;15.13;;;15.00;81.20;;;;;;5131487;27;20050;-77
2022/10/15 10:34:58;;;;;;;17.73;14.73;;;15.10;80.90;;;;;;5110637;28;20070;-76
2022/10/15 10:37:25;;;;;;;15.18;13.35;;;15.10;81.10;;;;;;5126878;27;20039;-78
2022/10/15 10:39:53;;;;;;;18.27;13.57;;;15.10;80.90;;;;;;5116802;27;20046;-77
2022/10/15 10:42:19;;;;;;;17.33;14.32;;;15.20;80.90;;;;;;5116501;27;20039;-77
2022/10/15 10:44:45;;;;;;;16.50;13.70;;;15.20;80.70;;;;;;5116630;27;20061;-77
2022/10/15 10:47:14;;;;;;;19.85;15.13;;;15.30;80.50;;;;;;5099798;27;20092;-77
2022/10/15 10:49:45;;;;;;;18.25;15.48;;;15.30;80.40;;;;;;5116391;27;20509;-78
2022/10/15 10:52:35;;;;;;;19.13;15.07;;;15.40;80.20;;;;;;5116813;27;20046;-78
2022/10/15 10:55:03;;;;;;;18.75;15.75;;;15.40;79.90;;;;;;5133521;27;20535;-78
2022/10/15 10:57:39;;;;;;;17.70;15.30;;;15.40;80.00;;;;;;5140766;27;20044;-78
2022/10/15 11:00:07;;;;;;;17.40;15.30;;;15.40;79.80;;;;;;5126358;27;20069;-78
2022/10/15 11:02:37;;;;;;;19.33;15.13;;;15.50;79.80;;;;;;5133426;27;20045;-78
2022/10/15 11:05:03;;;;;;;18.75;16.40;;;15.50;79.70;;;;;;5117241;27;20440;-78
2022/10/15 11:07:38;;;;;;;20.25;16.55;;;15.50;79.80;;;;;;5133523;27;20035;-78
2022/10/15 11:10:15;;;;;;;20.52;16.95;;;15.60;79.80;;;;;;5150951;27;20123;-78
2022/10/15 11:12:59;;;;;;;21.48;17.88;;;15.60;79.70;;;;;;5116296;27;20035;-78
2022/10/15 11:15:31;;;;;;;20.10;16.85;;;15.70;79.70;;;;;;5133302;27;20049;-78
2022/10/15 11:18:19;;;;;;;20.85;17.02;;;15.70;79.70;;;;;;5150478;27;20043;-78
2022/10/15 11:21:02;;;;;;;25.83;18.30;;;15.80;79.50;;;;;;5150489;27;20040;-78
2022/10/15 11:23:51;;;;;;;20.20;17.33;;;15.80;79.60;;;;;;5129074;27;20101;-78
2022/10/15 11:26:47;;;;;;;20.65;17.80;;;15.90;79.50;;;;;;5133249;27;20035;-78
2022/10/15 11:29:38;;;;;;;20.80;17.48;;;15.90;79.10;;;;;;5090845;27;20555;-78
2022/10/15 11:32:18;;;;;;;18.95;16.95;;;15.90;79.20;;;;;;5133412;27;20038;-78
2022/10/15 11:34:53;;;;;;;20.85;16.98;;;16.00;79.10;;;;;;5150262;27;20039;-77
2022/10/15 11:37:37;;;;;;;22.52;17.85;;;16.00;79.00;;;;;;5115997;28;20045;-77
2022/10/15 11:40:22;;;;;;;21.85;18.13;;;16.00;78.70;;;;;;5115703;28;20061;-76
2022/10/15 11:42:58;;;;;;;21.55;18.40;;;16.00;78.70;;;;;;5129224;28;20046;-77
2022/10/15 11:45:29;;;;;;;19.05;16.55;;;16.00;79.00;;;;;;5132018;28;20495;-77
2022/10/15 11:48:05;;;;;;;20.48;17.55;;;16.00;79.00;;;;;;5120688;28;20049;-77
2022/10/15 11:50:59;;;;;;;20.10;17.25;;;16.00;79.00;;;;;;5115425;28;20047;-77
2022/10/15 11:54:04;;;;;;;21.00;17.30;;;16.00;78.80;;;;;;5124172;27;20047;-76
2022/10/15 11:56:37;;;;;;;20.52;16.80;;;15.90;78.90;;;;;;5119987;28;20122;-76
2022/10/15 11:59:16;;;;;;;20.25;18.08;;;15.90;79.30;;;;;;5127663;28;20367;-77
2022/10/15 12:01:56;;;;;;;24.88;19.10;;;15.90;79.50;;;;;;5114769;28;20489;-77
2022/10/15 12:04:48;;;;;;;19.88;17.50;;;15.90;79.70;;;;;;5115280;28;20402;-76
2022/10/15 12:07:35;;;;;;;22.45;18.25;;;15.90;80.10;;;;;;5111297;28;20070;-77
2022/10/15 12:10:08;;;;;;;21.40;18.20;;;15.90;80.50;;;;;;5128000;28;20125;-76
2022/10/15 12:12:43;;;;;;;24.92;19.10;;;15.90;80.60;;;;;;5132152;27;20417;-76
2022/10/15 12:15:28;;;;;;;22.45;19.05;;;15.90;80.60;;;;;;5124197;28;20499;-76
2022/10/15 12:18:03;;;;;;;22.75;18.85;;;15.90;80.60;;;;;;5137265;27;20035;-76
2022/10/15 12:20:29;;;;;;;23.90;19.52;;;15.90;80.90;;;;;;5125919;28;20063;-76
2022/10/15 12:22:58;;;;;;;23.88;18.75;;;15.90;81.20;;;;;;5114984;27;20128;-77
2022/10/15 12:25:33;;;;;;;20.38;17.83;;;15.90;81.40;;;;;;5115202;28;20042;-76
2022/10/15 12:28:03;;;;;;;22.65;18.00;;;15.90;81.50;;;;;;5131986;28;20039;-77
2022/10/15 12:30:33;;;;;;;21.42;17.50;;;15.90;81.70;;;;;;5112951;28;20042;-76
2022/10/15 12:33:01;;;;;;;23.55;18.48;;;15.90;81.70;;;;;;5120668;27;20050;-77
2022/10/15 12:35:34;;;;;;;21.17;17.60;;;15.90;81.80;;;;;;5131741;28;20031;-77
2022/10/15 12:38:24;;;;;;;21.30;18.17;;;15.90;81.90;;;;;;5133104;27;20114;-77
2022/10/15 12:41:06;;;;;;;22.58;17.88;;;15.90;81.80;;;;;;5116552;27;20095;-80
2022/10/15 12:43:35;;;;;;;20.33;16.70;;;15.90;81.80;;;;;;5117693;27;20496;-74